createdAt,value
2023-03-18T00:00:53.478Z,93318.59
2023-03-18T00:02:25.608Z,93312.81
2023-03-18T00:03:57.396Z,93308.00
2023-03-18T00:05:28.924Z,93307.44
2023-03-18T00:07:00.492Z,93302.06
2023-03-18T00:08:32.989Z,93303.03
2023-03-18T00:10:05.297Z,93297.38
2023-03-18T00:11:37.713Z,93296.81
2023-03-18T00:13:10.612Z,93290.97
2023-03-18T00:14:42.338Z,93288.88
2023-03-18T00:16:14.169Z,93287.84
2023-03-18T00:17:46.827Z,93287.28
2023-03-18T00:19:18.702Z,93295.44
2023-03-18T00:20:50.357Z,93284.78
2023-03-18T00:22:22.170Z,93286.41
2023-03-18T00:23:56.616Z,93296.75
2023-03-18T00:25:28.401Z,93290.66
2023-03-18T00:27:00.004Z,93294.34
2023-03-18T00:28:32.134Z,93291.22
2023-03-18T00:30:05.195Z,93285.13
2023-03-18T00:31:38.482Z,93285.03
2023-03-18T00:33:10.525Z,93284.69
2023-03-18T00:34:42.473Z,93289.69
2023-03-18T00:36:14.122Z,93288.06
2023-03-18T00:37:48.704Z,93285.41
2023-03-18T00:39:26.223Z,93289.09
2023-03-18T00:41:14.069Z,93281.97
2023-03-18T00:42:50.715Z,93284.63
2023-03-18T00:44:22.355Z,93280.59
2023-03-18T00:45:57.192Z,93275.53
2023-03-18T00:47:28.949Z,93275.53
2023-03-18T00:49:01.204Z,93271.50
2023-03-18T00:50:33.562Z,93272.31
2023-03-18T00:52:05.278Z,93274.16
2023-03-18T00:53:37.154Z,93273.63
2023-03-18T00:55:09.045Z,93270.19
2023-03-18T00:56:40.599Z,93264.31
2023-03-18T00:58:12.795Z,93262.69
2023-03-18T00:59:44.819Z,93274.56
2023-03-18T01:01:17.237Z,93273.75
2023-03-18T01:02:49.431Z,93263.41
2023-03-18T01:04:21.774Z,93272.38
2023-03-18T01:05:53.726Z,93269.50
2023-03-18T01:07:25.366Z,93266.63
2023-03-18T01:08:57.368Z,93270.53
2023-03-18T01:10:30.918Z,93268.47
2023-03-18T01:12:02.902Z,93269.03
2023-03-18T01:13:34.466Z,93258.91
2023-03-18T01:15:06.538Z,93254.44
2023-03-18T01:16:38.330Z,93256.50
2023-03-18T01:18:11.598Z,93248.03
2023-03-18T01:19:43.722Z,93248.50
2023-03-18T01:21:15.468Z,93243.91
2023-03-18T01:22:47.236Z,93250.47
2023-03-18T01:24:18.798Z,93252.56
2023-03-18T01:25:51.119Z,93244.88
2023-03-18T01:27:22.623Z,93245.66
2023-03-18T01:28:54.198Z,93241.19
2023-03-18T01:30:25.769Z,93246.25
2023-03-18T01:31:57.723Z,93253.69
2023-03-18T01:33:30.254Z,93241.84
2023-03-18T01:35:01.958Z,93241.38
2023-03-18T01:36:33.741Z,93242.16
2023-03-18T01:38:05.605Z,93242.75
2023-03-18T01:39:37.372Z,93238.78
2023-03-18T01:41:08.929Z,93233.03
2023-03-18T01:42:41.173Z,93238.09
2023-03-18T01:44:13.979Z,93229.13
2023-03-18T01:45:48.387Z,93231.75
2023-03-18T01:47:21.584Z,93233.59
2023-03-18T01:48:53.251Z,93239.13
2023-03-18T01:50:26.536Z,93237.75
2023-03-18T01:51:59.121Z,93230.63
2023-03-18T01:53:32.729Z,93229.25
2023-03-18T01:55:06.148Z,93227.09
2023-03-18T01:56:38.475Z,93227.56
2023-03-18T01:58:12.755Z,93227.81
2023-03-18T01:59:44.329Z,93228.28
2023-03-18T02:01:19.209Z,93235.41
2023-03-18T02:02:52.985Z,93234.06
2023-03-18T02:04:26.051Z,93222.91
2023-03-18T02:05:57.582Z,93231.88
2023-03-18T02:07:30.471Z,93229.22
2023-03-18T02:09:03.046Z,93227.41
2023-03-18T02:10:34.610Z,93218.66
2023-03-18T02:12:06.334Z,93213.59
2023-03-18T02:13:38.741Z,93218.88
2023-03-18T02:15:11.606Z,93222.34
2023-03-18T02:17:10.573Z,93213.84
2023-03-18T02:18:44.561Z,93213.53
2023-03-18T02:20:37.488Z,93212.97
2023-03-18T02:22:16.359Z,93224.00
2023-03-18T02:23:57.256Z,93214.91
2023-03-18T02:25:48.281Z,93214.63
2023-03-18T02:27:20.604Z,93206.69
2023-03-18T02:28:52.216Z,93216.22
2023-03-18T02:30:26.496Z,93207.50
2023-03-18T02:31:58.423Z,93205.88
2023-03-18T02:33:31.479Z,93201.63
2023-03-18T02:35:03.662Z,93202.44
2023-03-18T02:36:35.458Z,93202.44
2023-03-18T02:38:06.984Z,93203.47
2023-03-18T02:39:41.813Z,93200.59
2023-03-18T02:41:14.274Z,93199.78
2023-03-18T02:42:46.082Z,93197.38
2023-03-18T02:44:17.611Z,93203.22
2023-03-18T02:45:58.300Z,93196.09
2023-03-18T02:47:29.888Z,93193.47
2023-03-18T02:49:01.759Z,93198.19
2023-03-18T02:50:34.479Z,93202.66
2023-03-18T02:52:06.387Z,93197.38
2023-03-18T02:53:38.440Z,93188.63
2023-03-18T02:55:10.739Z,93192.91
2023-03-18T02:56:42.480Z,93193.69
2023-03-18T02:58:13.920Z,93186.81
2023-03-18T02:59:45.609Z,93193.13
2023-03-18T03:01:17.829Z,93196.56
2023-03-18T03:02:49.853Z,93192.31
2023-03-18T03:04:22.293Z,93193.34
2023-03-18T03:05:54.173Z,93197.03
2023-03-18T03:07:28.406Z,93195.44
2023-03-18T03:09:00.917Z,93190.72
2023-03-18T03:10:32.670Z,93193.69
2023-03-18T03:12:04.809Z,93195.06
2023-03-18T03:13:36.498Z,93191.13
2023-03-18T03:15:08.363Z,93191.94
2023-03-18T03:16:39.957Z,93185.53
2023-03-18T03:18:11.629Z,93193.69
2023-03-18T03:19:43.736Z,93190.00
2023-03-18T03:21:15.458Z,93195.16
2023-03-18T03:22:47.580Z,93198.44
2023-03-18T03:24:19.107Z,93199.56
2023-03-18T03:25:51.384Z,93202.69
2023-03-18T03:27:23.440Z,93198.13
2023-03-18T03:28:54.950Z,93205.72
2023-03-18T03:30:26.585Z,93204.84
2023-03-18T03:31:58.175Z,93210.59
2023-03-18T03:33:30.061Z,93210.25
2023-03-18T03:35:01.575Z,93214.97
2023-03-18T03:36:33.102Z,93209.91
2023-03-18T03:38:05.111Z,93214.66
2023-03-18T03:39:36.576Z,93212.47
2023-03-18T03:41:10.452Z,93220.06
2023-03-18T03:42:41.982Z,93203.63
2023-03-18T03:44:13.708Z,93217.34
2023-03-18T03:45:45.364Z,93214.13
2023-03-18T03:47:16.915Z,93206.66
2023-03-18T03:48:48.503Z,93211.50
2023-03-18T03:50:20.177Z,93202.75
2023-03-18T03:51:52.348Z,93206.44
2023-03-18T03:53:25.155Z,93211.25
2023-03-18T03:54:56.628Z,93207.59
2023-03-18T03:56:28.475Z,93203.09
2023-03-18T03:58:00.175Z,93216.84
2023-03-18T03:59:31.786Z,93207.66
2023-03-18T04:01:05.369Z,93206.63
2023-03-18T04:02:37.550Z,93208.47
2023-03-18T04:04:09.092Z,93206.84
2023-03-18T04:05:41.808Z,93212.28
2023-03-18T04:07:14.542Z,93209.22
2023-03-18T04:08:46.339Z,93216.97
2023-03-18T04:10:18.355Z,93209.06
2023-03-18T04:11:49.813Z,93216.19
2023-03-18T04:13:21.368Z,93216.00
2023-03-18T04:14:52.910Z,93217.94
2023-03-18T04:16:24.492Z,93216.56
2023-03-18T04:17:56.245Z,93220.00
2023-03-18T04:19:27.768Z,93217.25
2023-03-18T04:20:59.368Z,93222.19
2023-03-18T04:22:31.480Z,93226.09
2023-03-18T04:24:05.174Z,93230.56
2023-03-18T04:25:36.913Z,93233.69
2023-03-18T04:27:08.473Z,93229.66
2023-03-18T04:28:40.560Z,93232.31
2023-03-18T04:30:12.598Z,93231.50
2023-03-18T04:31:44.864Z,93234.94
2023-03-18T04:33:16.842Z,93234.72
2023-03-18T04:34:48.796Z,93236.31
2023-03-18T04:36:20.286Z,93232.09
2023-03-18T04:37:51.885Z,93239.19
2023-03-18T04:39:23.409Z,93232.31
2023-03-18T04:40:54.962Z,93242.06
2023-03-18T04:42:26.922Z,93237.81
2023-03-18T04:43:58.403Z,93243.09
2023-03-18T04:45:30.704Z,93241.25
2023-03-18T04:47:02.337Z,93243.66
2023-03-18T04:48:33.922Z,93234.94
2023-03-18T04:50:05.648Z,93238.97
2023-03-18T04:51:37.740Z,93237.13
2023-03-18T04:53:09.266Z,93240.31
2023-03-18T04:54:40.863Z,93241.13
2023-03-18T04:56:12.770Z,93240.91
2023-03-18T04:57:44.710Z,93242.06
2023-03-18T04:59:18.277Z,93237.34
2023-03-18T05:00:50.323Z,93242.16
2023-03-18T05:02:21.903Z,93242.41
2023-03-18T05:03:53.509Z,93237.34
2023-03-18T05:05:25.839Z,93249.53
2023-03-18T05:06:57.361Z,93244.25
2023-03-18T05:08:29.284Z,93243.53
2023-03-18T05:10:00.803Z,93238.25
2023-03-18T05:11:32.345Z,93246.53
2023-03-18T05:13:03.863Z,93247.34
2023-03-18T05:14:35.384Z,93245.81
2023-03-18T05:16:07.501Z,93243.97
2023-03-18T05:17:40.957Z,93240.31
2023-03-18T05:19:12.586Z,93245.34
2023-03-18T05:20:44.371Z,93245.81
2023-03-18T05:22:17.248Z,93247.09
2023-03-18T05:23:48.882Z,93253.19
2023-03-18T05:25:21.523Z,93244.25
2023-03-18T05:26:53.076Z,93245.94
2023-03-18T05:28:24.624Z,93245.94
2023-03-18T05:29:56.294Z,93241.81
2023-03-18T05:31:28.124Z,93250.16
2023-03-18T05:32:59.753Z,93253.94
2023-03-18T05:34:31.500Z,93244.25
2023-03-18T05:36:03.094Z,93258.56
2023-03-18T05:37:34.775Z,93258.03
2023-03-18T05:39:06.349Z,93269.84
2023-03-18T05:40:38.124Z,93268.91
2023-03-18T05:42:09.744Z,93263.22
2023-03-18T05:43:41.296Z,93266.38
2023-03-18T05:45:12.970Z,93265.28
2023-03-18T05:46:44.678Z,93267.53
2023-03-18T05:48:16.446Z,93258.09
2023-03-18T05:49:48.456Z,93264.91
2023-03-18T05:51:20.789Z,93262.50
2023-03-18T05:52:52.330Z,93265.16
2023-03-18T05:54:24.095Z,93263.03
2023-03-18T05:55:56.615Z,93260.94
2023-03-18T05:57:28.490Z,93257.03
2023-03-18T05:59:00.158Z,93260.53
2023-03-18T06:00:31.793Z,93256.50
2023-03-18T06:02:03.409Z,93269.06
2023-03-18T06:03:35.132Z,93267.06
2023-03-18T06:05:06.950Z,93262.91
2023-03-18T06:06:40.621Z,93261.75
2023-03-18T06:08:13.031Z,93260.03
2023-03-18T06:09:44.834Z,93259.16
2023-03-18T06:11:17.572Z,93253.78
2023-03-18T06:12:49.761Z,93254.75
2023-03-18T06:14:21.550Z,93251.69
2023-03-18T06:15:59.104Z,93259.97
2023-03-18T06:17:31.648Z,93257.63
2023-03-18T06:19:03.611Z,93257.03
2023-03-18T06:20:35.607Z,93252.56
2023-03-18T06:22:07.220Z,93254.25
2023-03-18T06:23:39.779Z,93251.69
2023-03-18T06:25:11.865Z,93258.88
2023-03-18T06:26:43.636Z,93254.66
2023-03-18T06:28:15.382Z,93257.88
2023-03-18T06:29:46.975Z,93254.41
2023-03-18T06:31:18.620Z,93258.56
2023-03-18T06:32:50.336Z,93263.38
2023-03-18T06:34:21.972Z,93263.16
2023-03-18T06:35:54.872Z,93263.34
2023-03-18T06:37:26.664Z,93266.84
2023-03-18T06:38:59.343Z,93270.03
2023-03-18T06:40:30.994Z,93271.38
2023-03-18T06:42:02.683Z,93264.50
2023-03-18T06:43:34.237Z,93276.53
2023-03-18T06:45:06.174Z,93265.91
2023-03-18T06:46:38.089Z,93267.47
2023-03-18T06:48:10.586Z,93267.16
2023-03-18T06:49:42.363Z,93266.16
2023-03-18T06:51:14.053Z,93269.69
2023-03-18T06:52:45.695Z,93262.34
2023-03-18T06:54:17.728Z,93265.13
2023-03-18T06:55:49.677Z,93273.47
2023-03-18T06:57:21.330Z,93256.50
2023-03-18T06:58:53.059Z,93258.38
2023-03-18T07:00:25.218Z,93257.56
2023-03-18T07:01:56.988Z,93258.09
2023-03-18T07:03:28.768Z,93254.94
2023-03-18T07:05:03.558Z,93250.69
2023-03-18T07:06:37.825Z,93255.50
2023-03-18T07:08:09.906Z,93252.53
2023-03-18T07:09:41.785Z,93258.94
2023-03-18T07:11:13.567Z,93255.47
2023-03-18T07:12:45.154Z,93268.25
2023-03-18T07:14:17.322Z,93258.13
2023-03-18T07:15:48.949Z,93256.53
2023-03-18T07:17:20.716Z,93259.16
2023-03-18T07:18:52.737Z,93260.75
2023-03-18T07:20:24.255Z,93255.16
2023-03-18T07:21:57.354Z,93255.09
2023-03-18T07:23:28.979Z,93260.13
2023-03-18T07:25:01.541Z,93254.78
2023-03-18T07:26:33.498Z,93247.63
2023-03-18T07:28:05.993Z,93254.28
2023-03-18T07:29:38.100Z,93255.91
2023-03-18T07:31:10.020Z,93249.22
2023-03-18T07:32:42.316Z,93247.63
2023-03-18T07:34:15.084Z,93252.38
2023-03-18T07:35:46.583Z,93250.47
2023-03-18T07:37:18.194Z,93247.81
2023-03-18T07:38:49.778Z,93245.63
2023-03-18T07:40:21.309Z,93245.56
2023-03-18T07:41:52.995Z,93239.91
2023-03-18T07:43:24.660Z,93241.72
2023-03-18T07:44:56.447Z,93244.38
2023-03-18T07:46:28.488Z,93246.00
2023-03-18T07:48:00.358Z,93245.91
2023-03-18T07:49:35.120Z,93242.38
2023-03-18T07:51:07.027Z,93247.13
2023-03-18T07:52:39.013Z,93245.53
2023-03-18T07:54:11.192Z,93244.97
2023-03-18T07:55:43.143Z,93245.19
2023-03-18T07:57:14.860Z,93248.31
2023-03-18T07:58:46.843Z,93243.97
2023-03-18T08:00:19.180Z,93247.31
2023-03-18T08:01:51.570Z,93244.56
2023-03-18T08:03:23.220Z,93249.56
2023-03-18T08:04:54.962Z,93242.06
2023-03-18T08:06:26.736Z,93246.03
2023-03-18T08:07:58.664Z,93246.72
2023-03-18T08:09:30.516Z,93239.94
2023-03-18T08:11:02.527Z,93242.34
2023-03-18T08:12:49.315Z,93241.25
2023-03-18T08:14:23.037Z,93238.78
2023-03-18T08:15:56.280Z,93240.78
2023-03-18T08:17:28.431Z,93242.56
2023-03-18T08:19:00.123Z,93245.91
2023-03-18T08:20:32.642Z,93244.56
2023-03-18T08:22:04.564Z,93243.47
2023-03-18T08:23:36.636Z,93238.06
2023-03-18T08:25:08.466Z,93248.13
2023-03-18T08:26:40.544Z,93248.25
2023-03-18T08:28:12.175Z,93246.63
2023-03-18T08:29:44.177Z,93245.84
2023-03-18T08:31:15.766Z,93249.44
2023-03-18T08:32:47.505Z,93253.25
2023-03-18T08:34:19.144Z,93249.78
2023-03-18T08:35:52.315Z,93248.19
2023-03-18T08:37:24.293Z,93249.34
2023-03-18T08:38:56.804Z,93243.94
2023-03-18T08:40:28.546Z,93243.41
2023-03-18T08:42:00.725Z,93235.38
2023-03-18T08:43:32.896Z,93240.75
2023-03-18T08:45:05.363Z,93237.53
2023-03-18T08:46:37.899Z,93239.19
2023-03-18T08:48:10.031Z,93237.16
2023-03-18T08:49:42.133Z,93243.59
2023-03-18T08:51:14.857Z,93243.31
2023-03-18T08:52:46.416Z,93241.16
2023-03-18T08:54:19.038Z,93241.16
2023-03-18T08:55:50.699Z,93245.44
2023-03-18T08:57:22.302Z,93245.16
2023-03-18T08:58:53.907Z,93246.44
2023-03-18T09:00:26.016Z,93255.47
2023-03-18T09:01:57.996Z,93239.16
2023-03-18T09:03:30.557Z,93245.31
2023-03-18T09:05:02.198Z,93246.31
2023-03-18T09:06:33.689Z,93251.13
2023-03-18T09:08:05.636Z,93247.63
2023-03-18T09:09:43.720Z,93248.38
2023-03-18T09:11:16.410Z,93252.59
2023-03-18T09:12:48.008Z,93245.81
2023-03-18T09:14:19.950Z,93249.75
2023-03-18T09:15:52.016Z,93241.63
2023-03-18T09:17:31.987Z,93244.25
2023-03-18T09:19:11.001Z,93239.13
2023-03-18T09:20:42.623Z,93241.56
2023-03-18T09:22:14.316Z,93247.63
2023-03-18T09:23:46.482Z,93238.19
2023-03-18T09:25:18.905Z,93242.88
2023-03-18T09:26:50.597Z,93238.72
2023-03-18T09:28:22.503Z,93240.97
2023-03-18T09:29:54.287Z,93237.03
2023-03-18T09:31:27.507Z,93238.06
2023-03-18T09:32:59.383Z,93242.25
2023-03-18T09:34:31.268Z,93234.13
2023-03-18T09:36:04.300Z,93238.59
2023-03-18T09:37:36.866Z,93236.72
2023-03-18T09:39:10.182Z,93233.81
2023-03-18T09:40:44.767Z,93232.94
2023-03-18T09:42:23.005Z,93238.72
2023-03-18T09:44:02.872Z,93230.44
2023-03-18T09:45:58.386Z,93234.19
2023-03-18T09:47:30.518Z,93226.03
2023-03-18T09:49:17.467Z,93233.88
2023-03-18T09:50:52.963Z,93230.13
2023-03-18T09:52:26.721Z,93235.28
2023-03-18T09:54:07.121Z,93223.72
2023-03-18T09:55:49.780Z,93231.59
2023-03-18T09:57:23.136Z,93230.19
2023-03-18T09:59:07.999Z,93231.84
2023-03-18T10:00:39.682Z,93227.47
2023-03-18T10:02:19.416Z,93227.06
2023-03-18T10:03:52.123Z,93232.63
2023-03-18T10:05:25.254Z,93230.44
2023-03-18T10:06:58.778Z,93233.63
2023-03-18T10:08:39.620Z,93224.91
2023-03-18T10:10:17.960Z,93233.66
2023-03-18T10:11:50.747Z,93231.28
2023-03-18T10:13:28.515Z,93224.53
2023-03-18T10:15:05.082Z,93225.31
2023-03-18T10:16:44.928Z,93226.00
2023-03-18T10:18:23.052Z,93219.16
2023-03-18T10:19:56.062Z,93225.75
2023-03-18T10:21:27.853Z,93223.94
2023-03-18T10:23:02.145Z,93216.97
2023-03-18T10:24:36.608Z,93224.34
2023-03-18T10:26:19.968Z,93215.78
2023-03-18T10:27:57.707Z,93212.41
2023-03-18T10:29:32.175Z,93213.22
2023-03-18T10:31:04.426Z,93209.94
2023-03-18T10:32:48.953Z,93213.59
2023-03-18T10:34:25.058Z,93212.94
2023-03-18T10:35:59.601Z,93208.66
2023-03-18T10:37:43.043Z,93209.63
2023-03-18T10:39:18.132Z,93214.41
2023-03-18T10:40:49.728Z,93220.00
2023-03-18T10:42:26.576Z,93215.59
2023-03-18T10:43:58.298Z,93213.41
2023-03-18T10:45:34.352Z,93211.81
2023-03-18T10:47:15.761Z,93215.50
2023-03-18T10:48:47.570Z,93206.06
2023-03-18T10:50:23.975Z,93208.75
2023-03-18T10:52:00.454Z,93201.19
2023-03-18T10:53:37.007Z,93205.75
2023-03-18T10:55:14.738Z,93203.06
2023-03-18T10:56:46.532Z,93203.66
2023-03-18T10:58:18.872Z,93196.19
2023-03-18T10:59:51.500Z,93201.47
2023-03-18T11:01:25.404Z,93194.50
2023-03-18T11:02:57.533Z,93190.03
2023-03-18T11:04:30.833Z,93192.97
2023-03-18T11:06:04.356Z,93195.34
2023-03-18T11:07:36.294Z,93192.28
2023-03-18T11:09:09.791Z,93206.63
2023-03-18T11:10:45.997Z,93195.16
2023-03-18T11:12:28.811Z,93188.34
2023-03-18T11:14:01.933Z,93193.09
2023-03-18T11:15:43.147Z,93189.13
2023-03-18T11:17:28.265Z,93200.47
2023-03-18T11:19:00.123Z,93198.78
2023-03-18T11:20:43.245Z,93193.19
2023-03-18T11:22:17.668Z,93193.31
2023-03-18T11:24:07.854Z,93194.41
2023-03-18T11:25:40.714Z,93192.53
2023-03-18T11:27:16.231Z,93188.53
2023-03-18T11:28:48.122Z,93188.75
2023-03-18T11:30:33.218Z,93188.53
2023-03-18T11:32:07.270Z,93184.25
2023-03-18T11:33:40.983Z,93192.50
2023-03-18T11:35:17.548Z,93190.31
2023-03-18T11:36:59.488Z,93190.31
2023-03-18T11:38:32.387Z,93191.31
2023-03-18T11:40:22.529Z,93186.94
2023-03-18T11:41:54.620Z,93189.50
2023-03-18T11:43:26.521Z,93186.31
2023-03-18T11:44:58.693Z,93191.91
2023-03-18T11:46:31.429Z,93187.16
2023-03-18T11:48:03.753Z,93191.00
2023-03-18T11:49:35.739Z,93183.06
2023-03-18T11:51:08.289Z,93184.97
2023-03-18T11:52:41.946Z,93196.19
2023-03-18T11:54:19.695Z,93194.19
2023-03-18T11:55:52.764Z,93189.22
2023-03-18T11:57:45.516Z,93190.09
2023-03-18T11:59:20.570Z,93190.81
2023-03-18T12:00:55.562Z,93196.56
2023-03-18T12:02:36.404Z,93190.69
2023-03-18T12:04:10.975Z,93187.31
2023-03-18T12:05:45.647Z,93189.13
2023-03-18T12:07:22.253Z,93188.66
2023-03-18T12:09:12.386Z,93184.47
2023-03-18T12:10:48.953Z,93181.94
2023-03-18T12:12:39.288Z,93182.97
2023-03-18T12:14:17.743Z,93174.94
2023-03-18T12:16:11.429Z,93178.03
2023-03-18T12:17:55.514Z,93175.97
2023-03-18T12:19:33.432Z,93177.25
2023-03-18T12:21:23.747Z,93179.03
2023-03-18T12:23:11.272Z,93168.00
2023-03-18T12:24:49.156Z,93176.94
2023-03-18T12:26:24.069Z,93176.72
2023-03-18T12:28:16.951Z,93179.38
2023-03-18T12:29:53.046Z,93171.25
2023-03-18T12:31:28.282Z,93176.59
2023-03-18T12:33:04.493Z,93178.84
2023-03-18T12:34:48.463Z,93176.94
2023-03-18T12:36:27.282Z,93185.22
2023-03-18T12:38:09.591Z,93193.94
2023-03-18T12:39:48.332Z,93183.91
2023-03-18T12:41:25.751Z,93187.13
2023-03-18T12:43:12.685Z,93188.59
2023-03-18T12:44:54.867Z,93193.53
2023-03-18T12:46:27.557Z,93189.91
2023-03-18T12:48:04.987Z,93190.22
2023-03-18T12:49:41.059Z,93196.09
2023-03-18T12:51:14.359Z,93180.69
2023-03-18T12:52:46.527Z,93178.66
2023-03-18T12:54:28.877Z,93187.50
2023-03-18T12:56:19.727Z,93188.25
2023-03-18T12:57:59.946Z,93188.06
2023-03-18T12:59:36.695Z,93178.75
2023-03-18T13:01:10.858Z,93179.22
2023-03-18T13:02:57.867Z,93177.78
2023-03-18T13:04:30.437Z,93181.09
2023-03-18T13:06:02.166Z,93179.50
2023-03-18T13:07:38.547Z,93182.13
2023-03-18T13:09:28.563Z,93171.41
2023-03-18T13:11:05.349Z,93182.66
2023-03-18T13:12:37.605Z,93181.28
2023-03-18T13:14:27.678Z,93186.69
2023-03-18T13:16:00.120Z,93186.97
2023-03-18T13:17:33.303Z,93185.06
2023-03-18T13:19:06.758Z,93184.25
2023-03-18T13:20:39.020Z,93188.31
2023-03-18T13:22:29.365Z,93189.41
2023-03-18T13:24:19.722Z,93190.34
2023-03-18T13:25:56.831Z,93186.81
2023-03-18T13:27:47.188Z,93182.16
2023-03-18T13:29:18.910Z,93181.16
2023-03-18T13:30:50.718Z,93183.75
2023-03-18T13:32:29.851Z,93183.63
2023-03-18T13:34:12.282Z,93187.19
2023-03-18T13:35:47.468Z,93183.53
2023-03-18T13:37:28.488Z,93196.94
2023-03-18T13:39:04.552Z,93190.25
2023-03-18T13:40:41.658Z,93181.72
2023-03-18T13:42:26.705Z,93188.50
2023-03-18T13:44:02.667Z,93189.59
2023-03-18T13:45:38.235Z,93185.22
2023-03-18T13:47:12.373Z,93184.66
2023-03-18T13:48:45.463Z,93191.81
2023-03-18T13:50:20.195Z,93188.03
2023-03-18T13:51:53.743Z,93186.06
2023-03-18T13:53:27.766Z,93189.59
2023-03-18T13:55:01.009Z,93198.00
2023-03-18T13:56:33.402Z,93196.66
2023-03-18T13:58:05.634Z,93198.06
2023-03-18T13:59:38.182Z,93204.16
2023-03-18T14:01:16.049Z,93215.78
2023-03-18T14:03:01.675Z,93194.91
2023-03-18T14:04:46.978Z,93207.03
2023-03-18T14:06:19.482Z,93205.56
2023-03-18T14:07:52.227Z,93202.06
2023-03-18T14:09:24.135Z,93198.09
2023-03-18T14:11:15.771Z,93202.34
2023-03-18T14:12:48.144Z,93206.16
2023-03-18T14:14:40.316Z,93200.38
2023-03-18T14:16:12.962Z,93196.91
2023-03-18T14:17:47.297Z,93197.69
2023-03-18T14:19:19.649Z,93196.47
2023-03-18T14:20:54.913Z,93196.34
2023-03-18T14:22:35.885Z,93199.53
2023-03-18T14:24:14.672Z,93201.13
2023-03-18T14:25:49.070Z,93200.91
2023-03-18T14:27:22.083Z,93204.09
2023-03-18T14:28:56.573Z,93205.41
2023-03-18T14:30:31.950Z,93205.72
2023-03-18T14:32:08.916Z,93202.25
2023-03-18T14:33:48.041Z,93206.22
2023-03-18T14:35:30.041Z,93208.78
2023-03-18T14:37:06.137Z,93215.59
2023-03-18T14:38:41.986Z,93214.34
2023-03-18T14:40:15.337Z,93216.31
2023-03-18T14:41:48.990Z,93220.84
2023-03-18T14:43:24.272Z,93220.06
2023-03-18T14:44:56.990Z,93218.19
2023-03-18T14:46:32.147Z,93210.84
2023-03-18T14:48:05.641Z,93215.41
2023-03-18T14:49:38.019Z,93211.34
2023-03-18T14:51:20.147Z,93210.31
2023-03-18T14:52:56.321Z,93209.69
2023-03-18T14:54:27.931Z,93202.38
2023-03-18T14:55:59.784Z,93207.03
2023-03-18T14:57:31.646Z,93206.75
2023-03-18T14:59:03.581Z,93211.63
2023-03-18T15:00:36.068Z,93209.09
2023-03-18T15:02:10.739Z,93206.91
2023-03-18T15:03:43.771Z,93208.00
2023-03-18T15:05:16.673Z,93207.53
2023-03-18T15:06:48.346Z,93192.00
2023-03-18T15:08:20.851Z,93195.59
2023-03-18T15:09:52.764Z,93195.59
2023-03-18T15:11:25.304Z,93200.56
2023-03-18T15:13:13.214Z,93207.91
2023-03-18T15:14:44.988Z,93201.91
2023-03-18T15:16:18.677Z,93206.06
2023-03-18T15:17:50.718Z,93204.06
2023-03-18T15:19:22.953Z,93204.53
2023-03-18T15:21:00.145Z,93200.69
2023-03-18T15:22:32.108Z,93203.97
2023-03-18T15:24:04.859Z,93218.13
2023-03-18T15:25:38.141Z,93221.47
2023-03-18T15:27:23.060Z,93222.59
2023-03-18T15:28:56.913Z,93225.28
2023-03-18T15:30:30.377Z,93224.31
2023-03-18T15:32:10.538Z,93228.22
2023-03-18T15:33:43.177Z,93239.72
2023-03-18T15:35:20.305Z,93240.44
2023-03-18T15:36:56.707Z,93247.94
2023-03-18T15:38:29.109Z,93255.81
2023-03-18T15:40:17.316Z,93246.66
2023-03-18T15:41:53.619Z,93247.25
2023-03-18T15:43:43.809Z,93246.03
2023-03-18T15:45:19.851Z,93251.44
2023-03-18T15:46:52.713Z,93262.00
2023-03-18T15:48:30.095Z,93247.16
2023-03-18T15:50:02.782Z,93247.88
2023-03-18T15:51:40.664Z,93254.97
2023-03-18T15:53:21.361Z,93249.97
2023-03-18T15:54:53.725Z,93254.22
2023-03-18T15:56:32.289Z,93251.66
2023-03-18T15:58:04.836Z,93256.59
2023-03-18T15:59:36.750Z,93265.34
2023-03-18T16:01:10.536Z,93264.97
2023-03-18T16:02:42.414Z,93268.91
2023-03-18T16:04:15.497Z,93264.19
2023-03-18T16:05:47.133Z,93268.38
2023-03-18T16:07:28.427Z,93271.63
2023-03-18T16:09:00.654Z,93273.41
2023-03-18T16:10:32.808Z,93275.66
2023-03-18T16:12:13.304Z,93283.00
2023-03-18T16:13:45.352Z,93286.84
2023-03-18T16:15:22.334Z,93289.03
2023-03-18T16:16:54.202Z,93278.28
2023-03-18T16:18:26.134Z,93288.66
2023-03-18T16:19:57.861Z,93292.72
2023-03-18T16:21:29.555Z,93288.09
2023-03-18T16:23:01.231Z,93289.63
2023-03-18T16:24:33.005Z,93290.94
2023-03-18T16:26:07.084Z,93293.03
2023-03-18T16:27:42.370Z,93297.03
2023-03-18T16:29:15.826Z,93292.63
2023-03-18T16:30:48.477Z,93295.16
2023-03-18T16:32:20.539Z,93299.28
2023-03-18T16:33:53.823Z,93298.81
2023-03-18T16:35:26.963Z,93294.84
2023-03-18T16:36:58.679Z,93296.00
2023-03-18T16:38:31.400Z,93302.41
2023-03-18T16:40:07.393Z,93306.06
2023-03-18T16:41:39.505Z,93304.38
2023-03-18T16:43:22.001Z,93306.94
2023-03-18T16:44:53.623Z,93308.69
2023-03-18T16:46:26.377Z,93312.56
2023-03-18T16:47:59.477Z,93317.25
2023-03-18T16:49:32.001Z,93311.81
2023-03-18T16:51:04.769Z,93310.56
2023-03-18T16:52:36.588Z,93317.66
2023-03-18T16:54:16.882Z,93319.91
2023-03-18T16:55:49.729Z,93318.91
2023-03-18T16:57:21.756Z,93315.50
2023-03-18T16:58:53.306Z,93329.19
2023-03-18T17:00:25.637Z,93328.66
2023-03-18T17:01:57.303Z,93326.31
2023-03-18T17:03:29.766Z,93330.38
2023-03-18T17:05:01.591Z,93330.13
2023-03-18T17:06:33.221Z,93332.03
2023-03-18T17:08:05.082Z,93331.25
2023-03-18T17:09:36.918Z,93332.88
2023-03-18T17:11:09.929Z,93326.47
2023-03-18T17:12:44.788Z,93323.31
2023-03-18T17:14:37.762Z,93325.19
2023-03-18T17:16:14.857Z,93331.06
2023-03-18T17:17:47.527Z,93332.97
2023-03-18T17:19:19.289Z,93334.31
2023-03-18T17:20:51.554Z,93329.50
2023-03-18T17:22:24.140Z,93343.69
2023-03-18T17:23:58.999Z,93336.19
2023-03-18T17:25:31.192Z,93337.56
2023-03-18T17:27:04.140Z,93336.50
2023-03-18T17:28:39.449Z,93337.03
2023-03-18T17:30:18.444Z,93339.97
2023-03-18T17:31:51.928Z,93335.72
2023-03-18T17:33:25.624Z,93334.66
2023-03-18T17:34:58.053Z,93330.13
2023-03-18T17:36:29.764Z,93338.69
2023-03-18T17:38:01.462Z,93333.88
2023-03-18T17:39:33.347Z,93340.00
2023-03-18T17:41:06.027Z,93340.81
2023-03-18T17:42:37.769Z,93344.53
2023-03-18T17:44:21.267Z,93344.56
2023-03-18T17:45:53.590Z,93346.41
2023-03-18T17:47:25.575Z,93351.75
2023-03-18T17:48:57.751Z,93349.88
2023-03-18T17:50:29.786Z,93349.34
2023-03-18T17:52:02.119Z,93354.69
2023-03-18T17:53:33.860Z,93357.34
2023-03-18T17:55:10.786Z,93355.47
2023-03-18T17:56:42.921Z,93358.66
2023-03-18T17:58:18.290Z,93356.78
2023-03-18T17:59:50.529Z,93356.78
2023-03-18T18:01:24.516Z,93352.78
2023-03-18T18:02:58.542Z,93367.69
2023-03-18T18:04:31.172Z,93365.81
2023-03-18T18:06:03.789Z,93365.00
2023-03-18T18:07:36.620Z,93367.94
2023-03-18T18:09:10.689Z,93373.78
2023-03-18T18:10:42.403Z,93371.88
2023-03-18T18:12:17.246Z,93376.16
2023-03-18T18:13:49.247Z,93368.94
2023-03-18T18:15:21.756Z,93381.69
2023-03-18T18:16:56.937Z,93380.91
2023-03-18T18:18:29.665Z,93379.03
2023-03-18T18:20:01.928Z,93382.50
2023-03-18T18:21:34.412Z,93376.91
2023-03-18T18:23:07.344Z,93375.81
2023-03-18T18:24:39.006Z,93384.63
2023-03-18T18:26:15.188Z,93384.91